createdAt,value
2023-05-08T00:01:21.522Z,15.90
2023-05-08T00:03:50.135Z,15.80
2023-05-08T00:06:18.479Z,15.80
2023-05-08T00:08:48.302Z,15.80
2023-05-08T00:11:16.691Z,15.80
2023-05-08T00:13:45.214Z,15.90
2023-05-08T00:16:13.969Z,15.90
2023-05-08T00:18:42.432Z,15.90
2023-05-08T00:21:10.798Z,15.90
2023-05-08T00:23:39.107Z,15.80
2023-05-08T00:26:08.774Z,15.80
2023-05-08T00:28:37.034Z,15.80
2023-05-08T00:31:05.402Z,15.80
2023-05-08T00:33:33.704Z,15.90
2023-05-08T00:36:02.796Z,15.90
2023-05-08T00:38:31.942Z,15.90
2023-05-08T00:41:00.345Z,15.90
2023-05-08T00:43:30.202Z,15.90
2023-05-08T00:46:02.080Z,15.90
2023-05-08T00:48:33.310Z,15.90
2023-05-08T00:51:03.503Z,15.90
2023-05-08T00:53:34.482Z,15.90
2023-05-08T00:56:02.936Z,16.00
2023-05-08T00:58:33.596Z,16.00
2023-05-08T01:01:02.226Z,16.00
2023-05-08T01:03:31.188Z,16.00
2023-05-08T01:05:59.742Z,16.00
2023-05-08T01:08:28.064Z,15.90
2023-05-08T01:11:07.909Z,15.90
2023-05-08T01:13:50.938Z,15.90
2023-05-08T01:16:30.342Z,16.00
2023-05-08T01:19:03.791Z,16.00
2023-05-08T01:21:40.315Z,16.00
2023-05-08T01:24:39.223Z,16.00
2023-05-08T01:27:46.047Z,16.00
2023-05-08T01:30:46.934Z,15.90
2023-05-08T01:33:22.039Z,15.90
2023-05-08T01:35:54.132Z,15.90
2023-05-08T01:38:31.910Z,15.80
2023-05-08T01:41:06.925Z,15.80
2023-05-08T01:43:42.728Z,15.70
2023-05-08T01:46:17.849Z,15.70
2023-05-08T01:48:52.643Z,15.70
2023-05-08T01:51:24.057Z,15.70
2023-05-08T01:53:56.940Z,15.70
2023-05-08T01:56:27.114Z,15.70
2023-05-08T01:58:57.839Z,15.70
2023-05-08T02:01:29.405Z,15.70
2023-05-08T02:04:00.950Z,15.60
2023-05-08T02:06:32.376Z,15.50
2023-05-08T02:09:03.062Z,15.50
2023-05-08T02:11:33.245Z,15.40
2023-05-08T02:14:03.280Z,15.30
2023-05-08T02:16:32.849Z,15.30
2023-05-08T02:19:04.049Z,15.40
2023-05-08T02:21:33.104Z,15.40
2023-05-08T02:24:02.378Z,15.40
2023-05-08T02:26:32.606Z,15.30
2023-05-08T02:29:03.466Z,15.30
2023-05-08T02:31:32.519Z,15.30
2023-05-08T02:34:04.117Z,15.30
2023-05-08T02:36:33.145Z,15.30
2023-05-08T02:39:03.334Z,15.30
2023-05-08T02:41:34.513Z,15.30
2023-05-08T02:44:04.084Z,15.30
2023-05-08T02:46:41.614Z,15.30
2023-05-08T02:49:23.990Z,15.20
2023-05-08T02:51:58.630Z,15.30
2023-05-08T02:54:37.774Z,15.30
2023-05-08T02:57:14.328Z,15.30
2023-05-08T02:59:47.764Z,15.30
2023-05-08T03:02:23.476Z,15.20
2023-05-08T03:04:56.611Z,15.20
2023-05-08T03:07:27.151Z,15.20
2023-05-08T03:10:01.387Z,15.20
2023-05-08T03:12:33.972Z,15.20
2023-05-08T03:15:08.599Z,15.20
2023-05-08T03:17:40.273Z,15.20
2023-05-08T03:20:15.943Z,15.20
2023-05-08T03:22:46.117Z,15.20
2023-05-08T03:25:17.925Z,15.30
2023-05-08T03:27:46.747Z,15.30
2023-05-08T03:30:17.877Z,15.40
2023-05-08T03:32:55.652Z,15.40
2023-05-08T03:35:26.811Z,15.50
2023-05-08T03:37:55.316Z,15.50
2023-05-08T03:40:23.788Z,15.60
2023-05-08T03:42:52.905Z,15.60
2023-05-08T03:45:21.725Z,15.70
2023-05-08T03:47:53.703Z,15.70
2023-05-08T03:50:22.878Z,15.70
2023-05-08T03:52:53.292Z,15.70
2023-05-08T03:55:22.003Z,15.70
2023-05-08T03:57:58.779Z,15.80
2023-05-08T04:00:34.621Z,15.80
2023-05-08T04:03:14.940Z,15.80
2023-05-08T04:05:52.203Z,15.80
2023-05-08T04:08:26.700Z,15.80
2023-05-08T04:11:04.200Z,15.80
2023-05-08T04:13:38.057Z,15.80
2023-05-08T04:16:11.569Z,15.90
2023-05-08T04:18:46.865Z,15.80
2023-05-08T04:21:21.098Z,15.90
2023-05-08T04:23:53.015Z,15.90
2023-05-08T04:26:22.375Z,15.90
2023-05-08T04:28:52.856Z,16.00
2023-05-08T04:31:23.571Z,15.90
2023-05-08T04:33:52.576Z,16.00
2023-05-08T04:36:21.102Z,16.00
2023-05-08T04:38:50.864Z,16.10
2023-05-08T04:41:19.362Z,16.10
2023-05-08T04:43:47.869Z,16.10
2023-05-08T04:46:16.209Z,16.10
2023-05-08T04:48:44.631Z,16.10
2023-05-08T04:51:13.441Z,16.10
2023-05-08T04:53:41.992Z,16.10
2023-05-08T04:56:11.670Z,16.10
2023-05-08T04:58:40.056Z,16.20
2023-05-08T05:01:08.432Z,16.20
2023-05-08T05:03:36.874Z,16.20
2023-05-08T05:06:05.653Z,16.10
2023-05-08T05:08:34.085Z,16.10
2023-05-08T05:11:02.791Z,16.10
2023-05-08T05:13:32.474Z,16.00
2023-05-08T05:16:01.228Z,16.00
2023-05-08T05:18:30.737Z,15.90
2023-05-08T05:21:00.139Z,15.80
2023-05-08T05:23:31.098Z,15.90
2023-05-08T05:26:00.000Z,15.80
2023-05-08T05:28:28.728Z,15.90
2023-05-08T05:30:58.992Z,16.00
2023-05-08T05:33:27.415Z,16.10
2023-05-08T05:35:55.876Z,15.90
2023-05-08T05:38:24.634Z,15.90
2023-05-08T05:40:52.930Z,16.00
2023-05-08T05:43:21.422Z,16.00
2023-05-08T05:45:49.752Z,16.10
2023-05-08T05:48:19.553Z,16.20
2023-05-08T05:50:47.941Z,16.30
2023-05-08T05:53:16.380Z,16.30
2023-05-08T05:55:44.849Z,16.20
2023-05-08T05:58:13.374Z,16.20
2023-05-08T06:00:42.105Z,16.20
2023-05-08T06:03:11.219Z,16.10
2023-05-08T06:05:41.511Z,16.00
2023-05-08T06:08:09.899Z,16.00
2023-05-08T06:10:38.201Z,16.00
2023-05-08T06:13:06.665Z,16.10
2023-05-08T06:15:36.334Z,16.20
2023-05-08T06:18:05.325Z,16.20
2023-05-08T06:20:34.657Z,16.30
2023-05-08T06:23:04.621Z,16.40
2023-05-08T06:25:33.031Z,16.40
2023-05-08T06:28:01.387Z,16.50
2023-05-08T06:30:29.730Z,16.60
2023-05-08T06:32:58.089Z,16.70
2023-05-08T06:35:26.467Z,16.70
2023-05-08T06:37:54.759Z,16.80
2023-05-08T06:40:24.755Z,16.80
2023-05-08T06:42:53.083Z,16.90
2023-05-08T06:45:21.540Z,17.00
2023-05-08T06:47:49.946Z,17.20
2023-05-08T06:50:18.350Z,17.30
2023-05-08T06:52:46.672Z,17.30
2023-05-08T06:55:15.131Z,17.30
2023-05-08T06:57:45.051Z,17.60
2023-05-08T07:00:14.511Z,17.80
2023-05-08T07:02:42.923Z,18.00
2023-05-08T07:05:11.643Z,18.20
2023-05-08T07:07:40.179Z,18.30
2023-05-08T07:10:09.505Z,18.40
2023-05-08T07:12:38.074Z,19.00
2023-05-08T07:15:23.937Z,19.30
2023-05-08T07:17:54.403Z,19.30
2023-05-08T07:20:24.272Z,19.60
2023-05-08T07:22:52.997Z,19.40
2023-05-08T07:25:21.388Z,19.60
2023-05-08T07:27:49.804Z,19.60
2023-05-08T07:30:19.730Z,19.50
2023-05-08T07:32:48.148Z,19.40
2023-05-08T07:35:16.626Z,19.40
2023-05-08T07:37:45.265Z,19.30
2023-05-08T07:40:13.760Z,19.40
2023-05-08T07:42:43.251Z,19.40
2023-05-08T07:45:14.490Z,19.50
2023-05-08T07:47:52.395Z,19.40
2023-05-08T07:50:21.486Z,19.40
2023-05-08T07:52:50.526Z,19.40
2023-05-08T07:55:19.675Z,19.60
2023-05-08T07:57:48.012Z,19.40
2023-05-08T08:00:17.592Z,19.40
2023-05-08T08:02:46.644Z,19.50
2023-05-08T08:05:16.641Z,20.00
2023-05-08T08:07:45.067Z,20.50
2023-05-08T08:10:13.653Z,21.00
2023-05-08T08:12:42.022Z,21.10
2023-05-08T08:15:11.317Z,21.20
2023-05-08T08:17:39.941Z,21.50
2023-05-08T08:20:09.651Z,21.60
2023-05-08T08:22:40.322Z,21.40
2023-05-08T08:25:09.665Z,21.70
2023-05-08T08:27:38.068Z,21.70
2023-05-08T08:30:16.759Z,21.60
2023-05-08T08:32:46.579Z,21.70
2023-05-08T08:35:15.666Z,21.10
2023-05-08T08:37:45.895Z,21.20
2023-05-08T08:40:14.572Z,21.10
2023-05-08T08:42:43.187Z,21.40
2023-05-08T08:45:12.661Z,21.60
2023-05-08T08:47:43.250Z,21.70
2023-05-08T08:50:15.427Z,21.70
2023-05-08T08:52:54.378Z,21.80
2023-05-08T08:55:24.361Z,21.70
2023-05-08T08:58:04.396Z,21.60
2023-05-08T09:00:34.150Z,21.50
2023-05-08T09:03:03.151Z,21.70
2023-05-08T09:05:32.937Z,21.90
2023-05-08T09:08:02.923Z,22.20
2023-05-08T09:10:31.478Z,22.40
2023-05-08T09:12:59.986Z,22.60
2023-05-08T09:15:28.456Z,23.00
2023-05-08T09:17:56.978Z,23.10
2023-05-08T09:20:26.732Z,23.30
2023-05-08T09:22:56.075Z,23.50
2023-05-08T09:25:26.200Z,23.70
2023-05-08T09:27:54.608Z,23.70
2023-05-08T09:30:22.983Z,24.10
2023-05-08T09:32:51.430Z,24.30
2023-05-08T09:35:19.805Z,24.60
2023-05-08T09:37:48.255Z,24.60
2023-05-08T09:40:18.402Z,24.60
2023-05-08T09:42:48.818Z,24.70
2023-05-08T09:45:35.350Z,24.70
2023-05-08T09:48:04.249Z,24.70
2023-05-08T09:50:33.520Z,24.90
2023-05-08T09:53:02.101Z,24.90
2023-05-08T09:55:47.743Z,24.80
2023-05-08T09:58:17.779Z,24.50
2023-05-08T10:00:46.727Z,24.40
2023-05-08T10:03:15.356Z,24.20
2023-05-08T10:05:43.865Z,23.70
2023-05-08T10:08:22.981Z,23.90
2023-05-08T10:10:51.797Z,24.10
2023-05-08T10:13:21.771Z,24.10
2023-05-08T10:15:55.555Z,24.30
2023-05-08T10:18:30.621Z,24.30
2023-05-08T10:21:03.657Z,24.70
2023-05-08T10:23:34.338Z,24.70
2023-05-08T10:26:13.228Z,24.90
2023-05-08T10:28:50.746Z,24.50
2023-05-08T10:31:21.011Z,24.10
2023-05-08T10:33:55.935Z,24.50
2023-05-08T10:36:25.356Z,24.60
2023-05-08T10:38:54.662Z,25.10
2023-05-08T10:41:23.274Z,25.10
2023-05-08T10:43:54.417Z,25.20
2023-05-08T10:46:31.340Z,25.40
2023-05-08T10:49:08.325Z,25.80
2023-05-08T10:51:41.756Z,25.80
2023-05-08T10:54:14.763Z,25.80
2023-05-08T10:56:43.150Z,25.70
2023-05-08T10:59:19.823Z,25.80
2023-05-08T11:01:50.248Z,26.00
2023-05-08T11:04:22.820Z,25.90
2023-05-08T11:06:53.136Z,25.90
2023-05-08T11:09:23.561Z,25.80
2023-05-08T11:12:08.386Z,25.80
2023-05-08T11:14:42.305Z,25.50
2023-05-08T11:17:11.750Z,25.20
2023-05-08T11:19:55.408Z,25.30
2023-05-08T11:22:27.155Z,25.50
2023-05-08T11:25:04.177Z,25.60
2023-05-08T11:28:20.221Z,25.40
2023-05-08T11:30:55.264Z,24.90
2023-05-08T11:33:24.324Z,25.10
2023-05-08T11:35:55.308Z,25.10
2023-05-08T11:38:35.989Z,25.20
2023-05-08T11:41:06.600Z,25.20
2023-05-08T11:44:15.003Z,25.70
2023-05-08T11:46:52.106Z,25.80
2023-05-08T11:49:26.014Z,26.00
2023-05-08T11:51:58.628Z,26.00
2023-05-08T11:54:30.373Z,26.00
2023-05-08T11:56:59.648Z,25.60
2023-05-08T11:59:28.127Z,25.50
2023-05-08T12:02:07.910Z,25.50
2023-05-08T12:04:48.019Z,25.80
2023-05-08T12:07:17.118Z,25.50
2023-05-08T12:09:47.175Z,25.10
2023-05-08T12:12:15.546Z,24.80
2023-05-08T12:14:43.990Z,24.60
2023-05-08T12:17:19.156Z,24.40
2023-05-08T12:19:47.632Z,24.20
2023-05-08T12:22:16.292Z,24.50
2023-05-08T12:24:45.466Z,24.90
2023-05-08T12:27:14.600Z,25.20
2023-05-08T12:29:46.493Z,25.10
2023-05-08T12:32:16.367Z,25.00
2023-05-08T12:34:44.898Z,25.00
2023-05-08T12:37:13.319Z,25.30
2023-05-08T12:39:45.898Z,25.50
2023-05-08T12:42:14.221Z,25.80
2023-05-08T12:44:51.050Z,25.30
2023-05-08T12:47:21.408Z,25.00
2023-05-08T12:49:50.653Z,25.20
2023-05-08T12:52:19.496Z,25.60
2023-05-08T12:54:49.356Z,25.80
2023-05-08T12:57:19.174Z,26.00
2023-05-08T12:59:47.829Z,26.00
2023-05-08T13:02:18.200Z,26.00
2023-05-08T13:04:48.318Z,26.00
2023-05-08T13:07:16.820Z,25.90
2023-05-08T13:09:58.038Z,25.60
2023-05-08T13:12:26.555Z,25.70
2023-05-08T13:14:54.865Z,25.70
2023-05-08T13:17:23.396Z,25.80
2023-05-08T13:19:53.124Z,26.00
2023-05-08T13:22:23.172Z,26.00
2023-05-08T13:24:51.616Z,26.10
2023-05-08T13:27:20.127Z,26.30
2023-05-08T13:29:48.693Z,26.40
2023-05-08T13:32:17.190Z,26.20
2023-05-08T13:34:50.249Z,25.90
2023-05-08T13:37:21.994Z,25.60
2023-05-08T13:39:50.411Z,25.50
2023-05-08T13:42:18.869Z,25.30
2023-05-08T13:44:47.246Z,25.30
2023-05-08T13:47:15.617Z,25.30
2023-05-08T13:49:44.831Z,25.30
2023-05-08T13:52:13.202Z,25.50
2023-05-08T13:54:42.970Z,25.10
2023-05-08T13:57:11.887Z,25.10
2023-05-08T13:59:40.655Z,24.90
2023-05-08T14:02:09.167Z,25.00
2023-05-08T14:04:37.562Z,25.10
2023-05-08T14:07:06.136Z,25.50
2023-05-08T14:09:34.794Z,25.70
2023-05-08T14:12:04.726Z,25.60
2023-05-08T14:14:34.488Z,25.40
2023-05-08T14:17:03.249Z,25.60
2023-05-08T14:19:31.620Z,25.50
2023-05-08T14:22:00.358Z,25.20
2023-05-08T14:24:28.698Z,25.00
2023-05-08T14:26:57.068Z,25.30
2023-05-08T14:29:26.833Z,25.30
2023-05-08T14:31:55.408Z,25.00
2023-05-08T14:34:23.833Z,24.70
2023-05-08T14:36:52.347Z,24.70
2023-05-08T14:39:20.682Z,24.90
2023-05-08T14:42:13.742Z,25.00
2023-05-08T14:44:39.011Z,25.10
2023-05-08T14:47:07.634Z,25.00
2023-05-08T14:49:38.626Z,25.00
2023-05-08T14:52:07.410Z,24.80
2023-05-08T14:54:35.998Z,24.70
2023-05-08T14:57:04.575Z,24.50
2023-05-08T14:59:32.958Z,24.40
2023-05-08T15:02:03.135Z,24.30
2023-05-08T15:04:31.844Z,24.50
2023-05-08T15:07:00.169Z,24.50
2023-05-08T15:09:28.631Z,24.80
2023-05-08T15:11:57.106Z,24.50
2023-05-08T15:14:26.827Z,24.50
2023-05-08T15:16:55.158Z,24.60
2023-05-08T15:19:24.932Z,24.60
2023-05-08T15:21:53.258Z,24.70
2023-05-08T15:24:21.538Z,24.70
2023-05-08T15:26:50.258Z,24.70
2023-05-08T15:29:18.534Z,24.80
2023-05-08T15:31:47.000Z,24.80
2023-05-08T15:34:15.381Z,24.70
2023-05-08T15:36:45.059Z,24.60
2023-05-08T15:39:13.357Z,24.60
2023-05-08T15:41:41.853Z,23.90
2023-05-08T15:44:10.158Z,23.70
2023-05-08T15:46:38.531Z,23.50
2023-05-08T15:49:07.013Z,23.30
2023-05-08T15:51:35.353Z,23.20
2023-05-08T15:54:05.156Z,23.20
2023-05-08T15:56:33.930Z,23.30
2023-05-08T15:59:02.254Z,23.50
2023-05-08T16:01:30.612Z,23.60
2023-05-08T16:03:59.044Z,23.80
2023-05-08T16:06:27.418Z,23.50
2023-05-08T16:08:55.706Z,23.60
2023-05-08T16:11:25.387Z,23.40
2023-05-08T16:13:53.690Z,23.40
2023-05-08T16:16:21.971Z,23.40
2023-05-08T16:18:50.434Z,23.50
2023-05-08T16:21:18.760Z,23.40
2023-05-08T16:23:47.144Z,23.40
2023-05-08T16:26:16.561Z,23.20
2023-05-08T16:28:46.289Z,22.70
2023-05-08T16:31:15.846Z,22.40
2023-05-08T16:33:44.285Z,22.20
2023-05-08T16:36:12.644Z,21.80
2023-05-08T16:38:40.986Z,21.50
2023-05-08T16:41:10.251Z,21.20
2023-05-08T16:43:38.629Z,21.20
2023-05-08T16:46:08.686Z,20.80
2023-05-08T16:48:37.177Z,20.70
2023-05-08T16:51:05.538Z,20.60
2023-05-08T16:53:33.863Z,20.60
2023-05-08T16:56:02.255Z,20.70
2023-05-08T16:58:30.583Z,20.70
2023-05-08T17:00:58.905Z,20.50
2023-05-08T17:03:28.744Z,20.50
2023-05-08T17:05:57.192Z,20.50
2023-05-08T17:08:25.476Z,20.60
2023-05-08T17:10:54.781Z,20.40
2023-05-08T17:13:23.097Z,20.50
2023-05-08T17:15:51.510Z,20.30
2023-05-08T17:18:19.975Z,20.30
2023-05-08T17:20:49.641Z,20.30
2023-05-08T17:23:18.070Z,20.40
2023-05-08T17:25:46.475Z,20.50
2023-05-08T17:28:14.770Z,20.50
2023-05-08T17:30:43.147Z,20.60
2023-05-08T17:33:11.486Z,20.60
2023-05-08T17:35:39.821Z,20.60
2023-05-08T17:38:09.569Z,20.50
2023-05-08T17:40:39.003Z,20.60
2023-05-08T17:43:08.556Z,20.50
2023-05-08T17:45:36.907Z,20.40
2023-05-08T17:48:05.793Z,20.40
2023-05-08T17:50:35.607Z,20.40
2023-05-08T17:53:03.966Z,20.50
2023-05-08T17:55:34.593Z,20.50
2023-05-08T17:58:03.133Z,20.50
2023-05-08T18:00:31.431Z,20.30
2023-05-08T18:02:59.822Z,20.00
2023-05-08T18:05:28.198Z,19.90
2023-05-08T18:07:56.756Z,20.00
2023-05-08T18:10:25.269Z,19.90
2023-05-08T18:12:54.995Z,19.80
2023-05-08T18:15:23.364Z,19.80
2023-05-08T18:17:53.519Z,19.70
2023-05-08T18:20:22.065Z,19.60
2023-05-08T18:22:50.544Z,19.50
2023-05-08T18:25:19.072Z,19.50
2023-05-08T18:27:48.642Z,19.50
2023-05-08T18:30:18.565Z,19.40
2023-05-08T18:32:46.909Z,19.40
2023-05-08T18:35:15.235Z,19.30
2023-05-08T18:37:43.760Z,19.30
2023-05-08T18:40:13.258Z,19.30
2023-05-08T18:42:41.714Z,19.20
2023-05-08T18:45:11.373Z,19.30
2023-05-08T18:47:41.115Z,19.30
2023-05-08T18:50:10.684Z,19.20
2023-05-08T18:52:39.256Z,19.20
2023-05-08T18:55:08.491Z,19.20
2023-05-08T18:57:36.789Z,19.10
2023-05-08T19:00:06.261Z,19.00
2023-05-08T19:02:34.732Z,18.90
2023-05-08T19:05:04.683Z,18.90
2023-05-08T19:07:33.037Z,18.80
2023-05-08T19:10:01.413Z,18.70
2023-05-08T19:12:29.765Z,18.70
2023-05-08T19:14:58.048Z,18.60
2023-05-08T19:17:26.473Z,18.50
2023-05-08T19:19:54.789Z,18.40
2023-05-08T19:22:24.478Z,18.30
2023-05-08T19:24:52.979Z,18.30
2023-05-08T19:27:21.280Z,18.10
2023-05-08T19:29:49.605Z,18.00
2023-05-08T19:32:17.927Z,18.00
2023-05-08T19:34:46.345Z,17.90
2023-05-08T19:37:14.637Z,17.80
2023-05-08T19:39:44.354Z,17.70
2023-05-08T19:42:13.872Z,17.60
2023-05-08T19:44:42.531Z,17.60
2023-05-08T19:47:10.851Z,17.60
2023-05-08T19:49:39.193Z,17.60
2023-05-08T19:52:07.553Z,17.50
2023-05-08T19:54:35.972Z,17.50
2023-05-08T19:57:05.731Z,17.50
2023-05-08T19:59:34.600Z,17.40
2023-05-08T20:02:02.926Z,17.40
2023-05-08T20:04:32.353Z,17.40
2023-05-08T20:07:02.240Z,17.40
2023-05-08T20:09:30.507Z,17.40
2023-05-08T20:11:58.920Z,17.50
2023-05-08T20:14:28.607Z,17.60
2023-05-08T20:16:56.930Z,17.40
2023-05-08T20:19:25.737Z,17.40
2023-05-08T20:21:54.106Z,17.40
2023-05-08T20:24:22.389Z,17.40
2023-05-08T20:26:54.225Z,17.40
2023-05-08T20:29:23.156Z,17.30
2023-05-08T20:31:52.967Z,17.30
2023-05-08T20:34:22.154Z,17.30
2023-05-08T20:36:50.568Z,17.30
2023-05-08T20:39:18.887Z,17.40
2023-05-08T20:41:47.268Z,17.40
2023-05-08T20:44:17.670Z,17.30
2023-05-08T20:46:46.076Z,17.30
2023-05-08T20:49:17.131Z,17.30
2023-05-08T20:51:45.698Z,17.20
2023-05-08T20:54:14.152Z,17.20
2023-05-08T20:56:42.517Z,17.30
2023-05-08T20:59:11.431Z,17.20
2023-05-08T21:01:39.863Z,17.20
2023-05-08T21:04:08.253Z,17.10
2023-05-08T21:06:38.019Z,17.10
2023-05-08T21:09:07.198Z,17.10
2023-05-08T21:11:35.619Z,17.10
2023-05-08T21:14:04.051Z,17.00
2023-05-08T21:16:32.399Z,17.10
2023-05-08T21:19:00.812Z,17.10
2023-05-08T21:21:29.100Z,17.10
2023-05-08T21:23:58.804Z,17.10
2023-05-08T21:26:27.124Z,17.20
2023-05-08T21:28:58.504Z,17.10
2023-05-08T21:31:28.731Z,17.20
2023-05-08T21:33:57.285Z,17.10
2023-05-08T21:36:25.701Z,17.10
2023-05-08T21:38:54.081Z,17.00
2023-05-08T21:41:23.768Z,17.00
2023-05-08T21:43:52.140Z,17.00
2023-05-08T21:46:20.499Z,17.00
2023-05-08T21:48:48.883Z,17.00
2023-05-08T21:51:17.181Z,17.00
2023-05-08T21:53:45.592Z,17.00
2023-05-08T21:56:13.884Z,16.90
2023-05-08T21:58:43.652Z,16.90
2023-05-08T22:01:12.019Z,16.90
2023-05-08T22:03:40.470Z,16.80
2023-05-08T22:06:09.107Z,16.80
2023-05-08T22:08:37.456Z,16.80
2023-05-08T22:11:06.121Z,16.70
2023-05-08T22:13:34.393Z,16.70
2023-05-08T22:16:04.225Z,16.70
2023-05-08T22:18:32.630Z,16.70
2023-05-08T22:21:01.081Z,16.70
2023-05-08T22:23:29.424Z,16.70
2023-05-08T22:25:57.743Z,16.70
2023-05-08T22:28:26.481Z,16.70
2023-05-08T22:30:54.811Z,16.70
2023-05-08T22:33:24.521Z,16.70
2023-05-08T22:35:52.890Z,16.70
2023-05-08T22:38:21.199Z,16.60
2023-05-08T22:40:49.536Z,16.50
2023-05-08T22:43:17.825Z,16.40
2023-05-08T22:45:46.311Z,16.40
2023-05-08T22:48:14.683Z,16.40
2023-05-08T22:50:44.528Z,16.30
2023-05-08T22:53:13.152Z,16.30
2023-05-08T22:55:41.460Z,16.30
2023-05-08T22:58:09.766Z,16.40
2023-05-08T23:00:38.107Z,16.30
2023-05-08T23:03:06.625Z,16.30
2023-05-08T23:05:35.004Z,16.30
2023-05-08T23:08:04.836Z,16.30
2023-05-08T23:10:33.132Z,16.20
2023-05-08T23:13:01.518Z,16.30
2023-05-08T23:15:30.500Z,16.20
2023-05-08T23:17:58.966Z,16.20
2023-05-08T23:20:27.291Z,16.20
2023-05-08T23:22:56.658Z,16.10
2023-05-08T23:25:26.523Z,16.20
2023-05-08T23:27:54.826Z,16.10
2023-05-08T23:30:23.129Z,16.10
2023-05-08T23:32:51.502Z,16.00
2023-05-08T23:35:19.936Z,16.00
2023-05-08T23:37:48.350Z,16.00
2023-05-08T23:40:17.347Z,15.90
2023-05-08T23:42:47.042Z,15.90
2023-05-08T23:45:15.545Z,15.90
2023-05-08T23:47:44.110Z,15.90
2023-05-08T23:50:13.435Z,15.90
2023-05-08T23:52:42.635Z,15.90
2023-05-08T23:55:11.446Z,15.90
2023-05-08T23:57:39.838Z,15.90
